sensor_id;sensor_type;location;lat;lon;timestamp;P1;durP1;ratioP1;P2;durP2;ratioP2
68577;SDS011;61668;45.388;11.784;2022-12-15T00:00:00;34.10;;;19.90;;
68577;SDS011;61668;45.388;11.784;2022-12-15T00:02:45;41.70;;;21.40;;
68577;SDS011;61668;45.388;11.784;2022-12-15T00:05:29;40.20;;;21.20;;
68577;SDS011;61668;45.388;11.784;2022-12-15T00:08:13;37.00;;;20.80;;
68577;SDS011;61668;45.388;11.784;2022-12-15T00:11:00;38.20;;;18.80;;
68577;SDS011;61668;45.388;11.784;2022-12-15T00:13:45;53.80;;;26.70;;
68577;SDS011;61668;45.388;11.784;2022-12-15T00:16:29;84.50;;;35.80;;
68577;SDS011;61668;45.388;11.784;2022-12-15T00:19:13;67.50;;;26.20;;
68577;SDS011;61668;45.388;11.784;2022-12-15T00:21:58;37.00;;;18.20;;
68577;SDS011;61668;45.388;11.784;2022-12-15T00:24:42;30.10;;;17.20;;
68577;SDS011;61668;45.388;11.784;2022-12-15T00:27:26;37.20;;;18.60;;
68577;SDS011;61668;45.388;11.784;2022-12-15T00:30:11;37.80;;;19.80;;
68577;SDS011;61668;45.388;11.784;2022-12-15T00:32:55;37.10;;;17.40;;
68577;SDS011;61668;45.388;11.784;2022-12-15T00:35:39;36.70;;;18.20;;
68577;SDS011;61668;45.388;11.784;2022-12-15T00:38:23;34.80;;;18.30;;
68577;SDS011;61668;45.388;11.784;2022-12-15T00:41:13;40.60;;;19.80;;
68577;SDS011;61668;45.388;11.784;2022-12-15T00:43:40;38.70;;;20.20;;
68577;SDS011;61668;45.388;11.784;2022-12-15T00:46:06;34.30;;;18.30;;
68577;SDS011;61668;45.388;11.784;2022-12-15T00:48:50;39.40;;;19.00;;
68577;SDS011;61668;45.388;11.784;2022-12-15T00:51:17;41.00;;;19.00;;
68577;SDS011;61668;45.388;11.784;2022-12-15T00:53:43;36.40;;;18.20;;
68577;SDS011;61668;45.388;11.784;2022-12-15T00:56:28;34.80;;;19.40;;
68577;SDS011;61668;45.388;11.784;2022-12-15T00:59:13;37.60;;;18.40;;
68577;SDS011;61668;45.388;11.784;2022-12-15T01:01:58;32.10;;;16.60;;
68577;SDS011;61668;45.388;11.784;2022-12-15T01:04:42;37.30;;;20.20;;
68577;SDS011;61668;45.388;11.784;2022-12-15T01:07:26;41.70;;;19.60;;
68577;SDS011;61668;45.388;11.784;2022-12-15T01:10:11;40.00;;;19.80;;
68577;SDS011;61668;45.388;11.784;2022-12-15T01:12:55;38.40;;;20.20;;
68577;SDS011;61668;45.388;11.784;2022-12-15T01:15:39;39.60;;;19.50;;
68577;SDS011;61668;45.388;11.784;2022-12-15T01:18:23;34.30;;;18.80;;
68577;SDS011;61668;45.388;11.784;2022-12-15T01:21:09;34.70;;;17.80;;
68577;SDS011;61668;45.388;11.784;2022-12-15T01:23:37;32.50;;;17.20;;
68577;SDS011;61668;45.388;11.784;2022-12-15T01:26:05;35.30;;;17.80;;
68577;SDS011;61668;45.388;11.784;2022-12-15T01:28:31;36.40;;;17.40;;
68577;SDS011;61668;45.388;11.784;2022-12-15T01:30:57;33.10;;;16.90;;
68577;SDS011;61668;45.388;11.784;2022-12-15T01:33:23;41.60;;;18.00;;
68577;SDS011;61668;45.388;11.784;2022-12-15T01:35:58;35.60;;;19.80;;
68577;SDS011;61668;45.388;11.784;2022-12-15T01:38:25;44.80;;;23.00;;
68577;SDS011;61668;45.388;11.784;2022-12-15T01:40:55;41.60;;;19.50;;
68577;SDS011;61668;45.388;11.784;2022-12-15T01:43:34;39.80;;;19.50;;
68577;SDS011;61668;45.388;11.784;2022-12-15T01:51:18;32.90;;;17.00;;
68577;SDS011;61668;45.388;11.784;2022-12-15T01:56:28;34.20;;;17.20;;
68577;SDS011;61668;45.388;11.784;2022-12-15T01:58:59;37.10;;;17.90;;
68577;SDS011;61668;45.388;11.784;2022-12-15T02:01:26;38.90;;;18.90;;
68577;SDS011;61668;45.388;11.784;2022-12-15T02:03:52;43.20;;;21.20;;
68577;SDS011;61668;45.388;11.784;2022-12-15T02:06:18;46.00;;;24.20;;
68577;SDS011;61668;45.388;11.784;2022-12-15T02:08:48;44.20;;;21.10;;
68577;SDS011;61668;45.388;11.784;2022-12-15T02:36:31;37.10;;;18.70;;
68577;SDS011;61668;45.388;11.784;2022-12-15T02:38:58;39.00;;;19.10;;
68577;SDS011;61668;45.388;11.784;2022-12-15T02:41:40;37.70;;;19.00;;
68577;SDS011;61668;45.388;11.784;2022-12-15T02:53:32;41.50;;;19.70;;
68577;SDS011;61668;45.388;11.784;2022-12-15T03:01:54;40.50;;;19.40;;
68577;SDS011;61668;45.388;11.784;2022-12-15T03:04:21;40.30;;;20.10;;
68577;SDS011;61668;45.388;11.784;2022-12-15T03:07:00;37.30;;;19.80;;
68577;SDS011;61668;45.388;11.784;2022-12-15T03:09:30;40.20;;;19.00;;
68577;SDS011;61668;45.388;11.784;2022-12-15T03:11:56;40.20;;;19.20;;
68577;SDS011;61668;45.388;11.784;2022-12-15T03:14:22;40.40;;;19.60;;
68577;SDS011;61668;45.388;11.784;2022-12-15T03:16:50;36.50;;;19.40;;
68577;SDS011;61668;45.388;11.784;2022-12-15T03:19:16;33.90;;;17.20;;
68577;SDS011;61668;45.388;11.784;2022-12-15T03:21:42;32.80;;;16.40;;
68577;SDS011;61668;45.388;11.784;2022-12-15T03:24:08;39.20;;;18.30;;
68577;SDS011;61668;45.388;11.784;2022-12-15T03:26:33;37.40;;;17.80;;
68577;SDS011;61668;45.388;11.784;2022-12-15T03:28:59;35.80;;;18.70;;
68577;SDS011;61668;45.388;11.784;2022-12-15T03:31:25;36.30;;;19.70;;
68577;SDS011;61668;45.388;11.784;2022-12-15T03:33:51;37.20;;;18.60;;
68577;SDS011;61668;45.388;11.784;2022-12-15T03:36:16;34.40;;;18.10;;
68577;SDS011;61668;45.388;11.784;2022-12-15T03:38:42;37.30;;;18.60;;
68577;SDS011;61668;45.388;11.784;2022-12-15T03:41:07;38.10;;;18.90;;
68577;SDS011;61668;45.388;11.784;2022-12-15T03:43:33;42.10;;;19.30;;
68577;SDS011;61668;45.388;11.784;2022-12-15T03:45:58;35.50;;;18.50;;
68577;SDS011;61668;45.388;11.784;2022-12-15T03:48:24;38.00;;;19.70;;
68577;SDS011;61668;45.388;11.784;2022-12-15T03:50:50;38.40;;;18.80;;
68577;SDS011;61668;45.388;11.784;2022-12-15T03:53:15;37.60;;;19.10;;
68577;SDS011;61668;45.388;11.784;2022-12-15T03:55:41;33.30;;;16.80;;
68577;SDS011;61668;45.388;11.784;2022-12-15T03:58:07;34.40;;;17.20;;
68577;SDS011;61668;45.388;11.784;2022-12-15T04:00:32;34.50;;;17.30;;
68577;SDS011;61668;45.388;11.784;2022-12-15T04:02:58;33.80;;;18.40;;
68577;SDS011;61668;45.388;11.784;2022-12-15T04:05:29;31.90;;;15.50;;
68577;SDS011;61668;45.388;11.784;2022-12-15T04:07:57;35.40;;;16.50;;
68577;SDS011;61668;45.388;11.784;2022-12-15T04:10:25;39.40;;;20.00;;
68577;SDS011;61668;45.388;11.784;2022-12-15T04:12:57;37.70;;;19.90;;
68577;SDS011;61668;45.388;11.784;2022-12-15T04:15:34;38.20;;;19.80;;
68577;SDS011;61668;45.388;11.784;2022-12-15T04:18:03;38.20;;;17.90;;
68577;SDS011;61668;45.388;11.784;2022-12-15T04:20:34;36.80;;;18.70;;
68577;SDS011;61668;45.388;11.784;2022-12-15T04:22:59;33.20;;;17.80;;
68577;SDS011;61668;45.388;11.784;2022-12-15T04:25:26;37.90;;;19.60;;
68577;SDS011;61668;45.388;11.784;2022-12-15T04:28:12;34.70;;;17.50;;
68577;SDS011;61668;45.388;11.784;2022-12-15T04:31:02;37.20;;;18.10;;
68577;SDS011;61668;45.388;11.784;2022-12-15T04:33:52;43.30;;;22.70;;
68577;SDS011;61668;45.388;11.784;2022-12-15T04:36:39;37.70;;;19.20;;
68577;SDS011;61668;45.388;11.784;2022-12-15T04:39:25;33.50;;;17.20;;
68577;SDS011;61668;45.388;11.784;2022-12-15T04:42:09;36.50;;;17.10;;
68577;SDS011;61668;45.388;11.784;2022-12-15T04:44:56;39.20;;;20.70;;
68577;SDS011;61668;45.388;11.784;2022-12-15T04:47:42;41.80;;;20.90;;
68577;SDS011;61668;45.388;11.784;2022-12-15T04:50:26;33.80;;;17.80;;
68577;SDS011;61668;45.388;11.784;2022-12-15T04:53:15;30.10;;;16.20;;
68577;SDS011;61668;45.388;11.784;2022-12-15T04:56:01;40.90;;;18.90;;
68577;SDS011;61668;45.388;11.784;2022-12-15T04:58:46;33.70;;;17.50;;
68577;SDS011;61668;45.388;11.784;2022-12-15T05:01:32;37.40;;;19.20;;
68577;SDS011;61668;45.388;11.784;2022-12-15T05:04:16;31.70;;;17.80;;
68577;SDS011;61668;45.388;11.784;2022-12-15T05:07:01;41.60;;;19.60;;
68577;SDS011;61668;45.388;11.784;2022-12-15T05:09:45;35.10;;;17.30;;
68577;SDS011;61668;45.388;11.784;2022-12-15T05:12:29;37.40;;;19.50;;
68577;SDS011;61668;45.388;11.784;2022-12-15T05:15:13;34.40;;;20.30;;
68577;SDS011;61668;45.388;11.784;2022-12-15T05:17:57;41.60;;;19.70;;
68577;SDS011;61668;45.388;11.784;2022-12-15T05:20:41;38.40;;;19.50;;
68577;SDS011;61668;45.388;11.784;2022-12-15T05:23:25;42.90;;;20.10;;
68577;SDS011;61668;45.388;11.784;2022-12-15T05:26:09;35.10;;;19.50;;
68577;SDS011;61668;45.388;11.784;2022-12-15T05:28:54;38.90;;;20.40;;
68577;SDS011;61668;45.388;11.784;2022-12-15T05:31:38;43.00;;;23.10;;
68577;SDS011;61668;45.388;11.784;2022-12-15T05:34:36;40.90;;;19.50;;
68577;SDS011;61668;45.388;11.784;2022-12-15T05:37:04;43.60;;;19.80;;
68577;SDS011;61668;45.388;11.784;2022-12-15T05:39:30;42.40;;;23.50;;
68577;SDS011;61668;45.388;11.784;2022-12-15T05:41:56;43.60;;;24.70;;
68577;SDS011;61668;45.388;11.784;2022-12-15T05:44:23;37.40;;;21.20;;
68577;SDS011;61668;45.388;11.784;2022-12-15T05:46:49;37.60;;;19.20;;
68577;SDS011;61668;45.388;11.784;2022-12-15T05:49:16;38.60;;;20.00;;
68577;SDS011;61668;45.388;11.784;2022-12-15T05:51:45;36.90;;;20.50;;
68577;SDS011;61668;45.388;11.784;2022-12-15T05:54:15;39.50;;;20.60;;
68577;SDS011;61668;45.388;11.784;2022-12-15T05:56:43;41.60;;;20.70;;
68577;SDS011;61668;45.388;11.784;2022-12-15T05:59:09;36.90;;;20.00;;
68577;SDS011;61668;45.388;11.784;2022-12-15T06:01:35;41.10;;;19.30;;
68577;SDS011;61668;45.388;11.784;2022-12-15T06:04:01;42.50;;;21.10;;
68577;SDS011;61668;45.388;11.784;2022-12-15T06:06:27;54.30;;;25.70;;
68577;SDS011;61668;45.388;11.784;2022-12-15T06:08:53;51.30;;;26.70;;
68577;SDS011;61668;45.388;11.784;2022-12-15T06:11:19;51.70;;;24.10;;
68577;SDS011;61668;45.388;11.784;2022-12-15T06:13:45;49.00;;;23.70;;
68577;SDS011;61668;45.388;11.784;2022-12-15T06:18:42;45.80;;;23.00;;
68577;SDS011;61668;45.388;11.784;2022-12-15T06:21:12;41.20;;;22.60;;
68577;SDS011;61668;45.388;11.784;2022-12-15T06:23:41;38.30;;;21.70;;
68577;SDS011;61668;45.388;11.784;2022-12-15T06:26:13;42.10;;;22.60;;
68577;SDS011;61668;45.388;11.784;2022-12-15T06:28:39;41.20;;;21.00;;
68577;SDS011;61668;45.388;11.784;2022-12-15T06:31:07;39.30;;;20.70;;
68577;SDS011;61668;45.388;11.784;2022-12-15T06:33:35;38.80;;;20.10;;
68577;SDS011;61668;45.388;11.784;2022-12-15T06:36:02;38.20;;;19.60;;
68577;SDS011;61668;45.388;11.784;2022-12-15T06:38:29;41.00;;;21.10;;
68577;SDS011;61668;45.388;11.784;2022-12-15T06:40:55;38.20;;;18.70;;
68577;SDS011;61668;45.388;11.784;2022-12-15T06:43:26;39.20;;;20.30;;
68577;SDS011;61668;45.388;11.784;2022-12-15T06:45:53;39.00;;;20.00;;
68577;SDS011;61668;45.388;11.784;2022-12-15T06:48:19;37.00;;;19.40;;
68577;SDS011;61668;45.388;11.784;2022-12-15T06:50:45;37.30;;;20.20;;
68577;SDS011;61668;45.388;11.784;2022-12-15T06:53:12;35.70;;;19.40;;
68577;SDS011;61668;45.388;11.784;2022-12-15T06:55:40;35.90;;;19.40;;
68577;SDS011;61668;45.388;11.784;2022-12-15T06:58:06;39.50;;;20.80;;
68577;SDS011;61668;45.388;11.784;2022-12-15T07:00:33;41.70;;;19.90;;
68577;SDS011;61668;45.388;11.784;2022-12-15T07:03:02;37.00;;;19.90;;
68577;SDS011;61668;45.388;11.784;2022-12-15T07:05:28;39.20;;;20.70;;
68577;SDS011;61668;45.388;11.784;2022-12-15T07:07:54;37.00;;;20.60;;
68577;SDS011;61668;45.388;11.784;2022-12-15T07:10:19;38.00;;;21.40;;
68577;SDS011;61668;45.388;11.784;2022-12-15T07:12:45;37.20;;;20.50;;
68577;SDS011;61668;45.388;11.784;2022-12-15T07:15:11;41.30;;;20.90;;
68577;SDS011;61668;45.388;11.784;2022-12-15T07:17:37;40.30;;;22.20;;
68577;SDS011;61668;45.388;11.784;2022-12-15T07:20:03;37.30;;;20.50;;
68577;SDS011;61668;45.388;11.784;2022-12-15T07:22:30;37.30;;;21.60;;
68577;SDS011;61668;45.388;11.784;2022-12-15T07:24:56;38.80;;;21.90;;
68577;SDS011;61668;45.388;11.784;2022-12-15T07:27:22;40.20;;;22.20;;
68577;SDS011;61668;45.388;11.784;2022-12-15T07:29:47;41.90;;;21.00;;
68577;SDS011;61668;45.388;11.784;2022-12-15T07:32:13;43.10;;;22.60;;
68577;SDS011;61668;45.388;11.784;2022-12-15T07:34:40;38.30;;;22.70;;
68577;SDS011;61668;45.388;11.784;2022-12-15T07:37:06;38.90;;;22.10;;
68577;SDS011;61668;45.388;11.784;2022-12-15T07:39:32;38.50;;;21.10;;
68577;SDS011;61668;45.388;11.784;2022-12-15T07:41:58;41.10;;;23.00;;
68577;SDS011;61668;45.388;11.784;2022-12-15T07:44:24;38.60;;;22.40;;
68577;SDS011;61668;45.388;11.784;2022-12-15T07:46:49;43.20;;;22.90;;
68577;SDS011;61668;45.388;11.784;2022-12-15T07:49:16;38.20;;;21.70;;
68577;SDS011;61668;45.388;11.784;2022-12-15T07:51:42;37.70;;;22.40;;
68577;SDS011;61668;45.388;11.784;2022-12-15T07:54:13;46.70;;;22.20;;
68577;SDS011;61668;45.388;11.784;2022-12-15T07:56:39;39.70;;;22.80;;
68577;SDS011;61668;45.388;11.784;2022-12-15T07:59:05;42.30;;;23.80;;
68577;SDS011;61668;45.388;11.784;2022-12-15T08:01:32;37.80;;;22.40;;
68577;SDS011;61668;45.388;11.784;2022-12-15T08:03:59;45.10;;;24.50;;
68577;SDS011;61668;45.388;11.784;2022-12-15T08:06:25;41.00;;;23.50;;
68577;SDS011;61668;45.388;11.784;2022-12-15T08:08:51;43.70;;;24.30;;
68577;SDS011;61668;45.388;11.784;2022-12-15T08:11:18;46.00;;;24.70;;
68577;SDS011;61668;45.388;11.784;2022-12-15T08:13:45;42.70;;;23.80;;
68577;SDS011;61668;45.388;11.784;2022-12-15T08:16:11;42.80;;;24.30;;
68577;SDS011;61668;45.388;11.784;2022-12-15T08:18:36;40.00;;;22.30;;
68577;SDS011;61668;45.388;11.784;2022-12-15T08:21:04;41.80;;;23.50;;
68577;SDS011;61668;45.388;11.784;2022-12-15T08:23:31;38.40;;;21.60;;
68577;SDS011;61668;45.388;11.784;2022-12-15T08:26:05;36.20;;;20.00;;
68577;SDS011;61668;45.388;11.784;2022-12-15T08:28:33;33.90;;;18.30;;
68577;SDS011;61668;45.388;11.784;2022-12-15T08:31:20;35.50;;;20.00;;
68577;SDS011;61668;45.388;11.784;2022-12-15T08:33:47;32.80;;;19.70;;
68577;SDS011;61668;45.388;11.784;2022-12-15T08:36:15;35.90;;;20.30;;
68577;SDS011;61668;45.388;11.784;2022-12-15T08:38:43;33.50;;;19.00;;
68577;SDS011;61668;45.388;11.784;2022-12-15T08:41:21;35.60;;;20.30;;
68577;SDS011;61668;45.388;11.784;2022-12-15T08:43:49;31.80;;;18.40;;
68577;SDS011;61668;45.388;11.784;2022-12-15T08:46:16;32.20;;;20.00;;
68577;SDS011;61668;45.388;11.784;2022-12-15T08:48:44;32.10;;;20.00;;
68577;SDS011;61668;45.388;11.784;2022-12-15T08:51:10;38.50;;;19.20;;
68577;SDS011;61668;45.388;11.784;2022-12-15T08:53:36;29.60;;;16.80;;
68577;SDS011;61668;45.388;11.784;2022-12-15T08:56:11;29.10;;;16.20;;
68577;SDS011;61668;45.388;11.784;2022-12-15T08:58:38;27.80;;;15.50;;
68577;SDS011;61668;45.388;11.784;2022-12-15T09:01:07;32.10;;;16.40;;
68577;SDS011;61668;45.388;11.784;2022-12-15T09:03:37;29.10;;;16.30;;
68577;SDS011;61668;45.388;11.784;2022-12-15T09:06:05;31.90;;;17.70;;
68577;SDS011;61668;45.388;11.784;2022-12-15T09:08:32;29.40;;;15.60;;
68577;SDS011;61668;45.388;11.784;2022-12-15T09:10:58;29.40;;;16.30;;
68577;SDS011;61668;45.388;11.784;2022-12-15T09:13:25;28.20;;;16.80;;
68577;SDS011;61668;45.388;11.784;2022-12-15T09:15:59;28.80;;;16.60;;
68577;SDS011;61668;45.388;11.784;2022-12-15T09:18:44;31.10;;;17.30;;
68577;SDS011;61668;45.388;11.784;2022-12-15T09:21:12;26.30;;;15.20;;
68577;SDS011;61668;45.388;11.784;2022-12-15T09:23:39;29.20;;;16.00;;
68577;SDS011;61668;45.388;11.784;2022-12-15T09:26:12;27.70;;;15.30;;
68577;SDS011;61668;45.388;11.784;2022-12-15T09:28:41;25.70;;;14.20;;
68577;SDS011;61668;45.388;11.784;2022-12-15T09:33:42;28.30;;;16.20;;
68577;SDS011;61668;45.388;11.784;2022-12-15T09:36:09;28.50;;;15.60;;
68577;SDS011;61668;45.388;11.784;2022-12-15T09:38:38;26.60;;;15.60;;
68577;SDS011;61668;45.388;11.784;2022-12-15T09:41:19;26.20;;;16.00;;
68577;SDS011;61668;45.388;11.784;2022-12-15T09:44:13;30.00;;;15.80;;
68577;SDS011;61668;45.388;11.784;2022-12-15T09:52:26;30.50;;;17.50;;
68577;SDS011;61668;45.388;11.784;2022-12-15T09:54:54;32.00;;;15.60;;
68577;SDS011;61668;45.388;11.784;2022-12-15T09:57:36;29.40;;;16.90;;
68577;SDS011;61668;45.388;11.784;2022-12-15T10:00:07;28.40;;;17.10;;
68577;SDS011;61668;45.388;11.784;2022-12-15T10:06:13;31.30;;;17.10;;
68577;SDS011;61668;45.388;11.784;2022-12-15T10:08:49;39.60;;;21.30;;
68577;SDS011;61668;45.388;11.784;2022-12-15T10:14:20;29.60;;;16.80;;
68577;SDS011;61668;45.388;11.784;2022-12-15T10:19:51;25.90;;;15.60;;
68577;SDS011;61668;45.388;11.784;2022-12-15T10:22:25;29.00;;;16.90;;
68577;SDS011;61668;45.388;11.784;2022-12-15T10:24:53;27.10;;;15.90;;
68577;SDS011;61668;45.388;11.784;2022-12-15T10:27:35;28.80;;;17.00;;
68577;SDS011;61668;45.388;11.784;2022-12-15T10:30:07;33.00;;;17.30;;
68577;SDS011;61668;45.388;11.784;2022-12-15T10:35:15;28.80;;;17.40;;
68577;SDS011;61668;45.388;11.784;2022-12-15T10:37:42;35.20;;;17.90;;
68577;SDS011;61668;45.388;11.784;2022-12-15T10:40:08;33.70;;;18.00;;
68577;SDS011;61668;45.388;11.784;2022-12-15T10:42:48;34.00;;;18.90;;
68577;SDS011;61668;45.388;11.784;2022-12-15T10:45:35;30.60;;;18.90;;
68577;SDS011;61668;45.388;11.784;2022-12-15T10:48:03;32.20;;;17.90;;
68577;SDS011;61668;45.388;11.784;2022-12-15T10:50:32;29.90;;;17.80;;
68577;SDS011;61668;45.388;11.784;2022-12-15T10:53:05;37.70;;;21.30;;
68577;SDS011;61668;45.388;11.784;2022-12-15T10:55:41;30.40;;;18.80;;
68577;SDS011;61668;45.388;11.784;2022-12-15T10:58:16;34.10;;;18.20;;
68577;SDS011;61668;45.388;11.784;2022-12-15T11:00:45;32.00;;;19.20;;
68577;SDS011;61668;45.388;11.784;2022-12-15T11:03:21;38.30;;;19.60;;
68577;SDS011;61668;45.388;11.784;2022-12-15T11:05:53;31.30;;;19.10;;
68577;SDS011;61668;45.388;11.784;2022-12-15T11:08:19;39.20;;;20.90;;
68577;SDS011;61668;45.388;11.784;2022-12-15T11:10:53;35.10;;;20.20;;
68577;SDS011;61668;45.388;11.784;2022-12-15T11:13:38;35.30;;;19.70;;
68577;SDS011;61668;45.388;11.784;2022-12-15T11:16:15;37.10;;;20.80;;
68577;SDS011;61668;45.388;11.784;2022-12-15T11:18:57;40.40;;;22.10;;
68577;SDS011;61668;45.388;11.784;2022-12-15T11:21:35;36.00;;;21.80;;
68577;SDS011;61668;45.388;11.784;2022-12-15T11:27:23;38.00;;;23.70;;
68577;SDS011;61668;45.388;11.784;2022-12-15T11:30:14;40.60;;;22.50;;
68577;SDS011;61668;45.388;11.784;2022-12-15T11:32:46;37.90;;;22.80;;
68577;SDS011;61668;45.388;11.784;2022-12-15T11:35:25;43.70;;;23.60;;
68577;SDS011;61668;45.388;11.784;2022-12-15T11:38:11;42.20;;;23.20;;
68577;SDS011;61668;45.388;11.784;2022-12-15T11:40:42;41.00;;;23.30;;
68577;SDS011;61668;45.388;11.784;2022-12-15T11:43:29;37.20;;;22.20;;
68577;SDS011;61668;45.388;11.784;2022-12-15T11:46:26;38.10;;;21.70;;
68577;SDS011;61668;45.388;11.784;2022-12-15T11:49:30;37.30;;;22.40;;
68577;SDS011;61668;45.388;11.784;2022-12-15T11:52:40;37.90;;;22.40;;
68577;SDS011;61668;45.388;11.784;2022-12-15T12:03:59;40.50;;;21.80;;
68577;SDS011;61668;45.388;11.784;2022-12-15T12:09:45;38.80;;;21.80;;
68577;SDS011;61668;45.388;11.784;2022-12-15T12:17:52;35.50;;;20.20;;
68577;SDS011;61668;45.388;11.784;2022-12-15T12:20:55;42.10;;;22.00;;
68577;SDS011;61668;45.388;11.784;2022-12-15T12:23:30;38.10;;;19.40;;
68577;SDS011;61668;45.388;11.784;2022-12-15T12:26:14;38.30;;;20.70;;
68577;SDS011;61668;45.388;11.784;2022-12-15T12:29:01;31.40;;;17.90;;
68577;SDS011;61668;45.388;11.784;2022-12-15T12:34:25;40.00;;;23.20;;
68577;SDS011;61668;45.388;11.784;2022-12-15T12:39:57;36.10;;;19.40;;
68577;SDS011;61668;45.388;11.784;2022-12-15T12:42:40;54.70;;;31.30;;
68577;SDS011;61668;45.388;11.784;2022-12-15T12:45:12;37.20;;;20.40;;
68577;SDS011;61668;45.388;11.784;2022-12-15T12:47:42;32.60;;;18.50;;
68577;SDS011;61668;45.388;11.784;2022-12-15T12:50:27;31.80;;;17.40;;
68577;SDS011;61668;45.388;11.784;2022-12-15T12:52:56;32.60;;;16.60;;
68577;SDS011;61668;45.388;11.784;2022-12-15T12:55:39;29.50;;;16.20;;
68577;SDS011;61668;45.388;11.784;2022-12-15T12:58:46;38.30;;;19.20;;
68577;SDS011;61668;45.388;11.784;2022-12-15T13:01:23;34.30;;;18.70;;
68577;SDS011;61668;45.388;11.784;2022-12-15T13:04:09;33.50;;;18.90;;
68577;SDS011;61668;45.388;11.784;2022-12-15T13:11:57;36.40;;;20.30;;
68577;SDS011;61668;45.388;11.784;2022-12-15T13:14:34;49.40;;;25.20;;
68577;SDS011;61668;45.388;11.784;2022-12-15T13:22:33;34.80;;;17.20;;
68577;SDS011;61668;45.388;11.784;2022-12-15T13:25:40;51.60;;;26.80;;
68577;SDS011;61668;45.388;11.784;2022-12-15T13:28:17;35.10;;;17.20;;
68577;SDS011;61668;45.388;11.784;2022-12-15T13:41:41;32.00;;;14.10;;
68577;SDS011;61668;45.388;11.784;2022-12-15T13:44:34;27.30;;;14.30;;
68577;SDS011;61668;45.388;11.784;2022-12-15T13:47:19;27.50;;;12.70;;
68577;SDS011;61668;45.388;11.784;2022-12-15T13:50:10;28.90;;;16.00;;
68577;SDS011;61668;45.388;11.784;2022-12-15T13:52:46;24.60;;;13.40;;
68577;SDS011;61668;45.388;11.784;2022-12-15T13:55:30;26.60;;;13.40;;
68577;SDS011;61668;45.388;11.784;2022-12-15T13:58:15;25.90;;;13.10;;
68577;SDS011;61668;45.388;11.784;2022-12-15T14:00:51;31.00;;;15.90;;
68577;SDS011;61668;45.388;11.784;2022-12-15T14:03:19;27.20;;;15.70;;
68577;SDS011;61668;45.388;11.784;2022-12-15T14:05:57;29.20;;;16.50;;
68577;SDS011;61668;45.388;11.784;2022-12-15T14:08:25;31.00;;;15.10;;
68577;SDS011;61668;45.388;11.784;2022-12-15T14:10:55;25.40;;;14.20;;
68577;SDS011;61668;45.388;11.784;2022-12-15T14:18:35;25.90;;;13.60;;
68577;SDS011;61668;45.388;11.784;2022-12-15T14:21:06;27.10;;;13.20;;
68577;SDS011;61668;45.388;11.784;2022-12-15T14:23:47;25.50;;;12.90;;
68577;SDS011;61668;45.388;11.784;2022-12-15T14:26:14;25.70;;;12.00;;
68577;SDS011;61668;45.388;11.784;2022-12-15T14:28:42;25.60;;;13.50;;
68577;SDS011;61668;45.388;11.784;2022-12-15T14:31:16;27.00;;;14.60;;
68577;SDS011;61668;45.388;11.784;2022-12-15T14:33:46;28.90;;;15.60;;
68577;SDS011;61668;45.388;11.784;2022-12-15T14:36:16;31.10;;;15.50;;
68577;SDS011;61668;45.388;11.784;2022-12-15T14:41:32;33.70;;;15.10;;
68577;SDS011;61668;45.388;11.784;2022-12-15T14:44:03;29.50;;;15.40;;
68577;SDS011;61668;45.388;11.784;2022-12-15T14:46:31;37.10;;;17.10;;
68577;SDS011;61668;45.388;11.784;2022-12-15T14:49:00;30.20;;;13.80;;
68577;SDS011;61668;45.388;11.784;2022-12-15T14:51:31;28.20;;;14.10;;
68577;SDS011;61668;45.388;11.784;2022-12-15T14:55:20;26.50;;;12.90;;
68577;SDS011;61668;45.388;11.784;2022-12-15T14:57:19;28.50;;;14.40;;
68577;SDS011;61668;45.388;11.784;2022-12-15T14:59:48;33.30;;;14.30;;
68577;SDS011;61668;45.388;11.784;2022-12-15T15:02:24;27.30;;;12.80;;
68577;SDS011;61668;45.388;11.784;2022-12-15T15:05:01;28.90;;;14.30;;
68577;SDS011;61668;45.388;11.784;2022-12-15T15:07:30;29.70;;;15.40;;
68577;SDS011;61668;45.388;11.784;2022-12-15T15:09:57;28.60;;;14.60;;
68577;SDS011;61668;45.388;11.784;2022-12-15T15:12:40;32.60;;;15.30;;
68577;SDS011;61668;45.388;11.784;2022-12-15T15:15:18;28.90;;;14.20;;
68577;SDS011;61668;45.388;11.784;2022-12-15T15:17:56;29.30;;;14.50;;
68577;SDS011;61668;45.388;11.784;2022-12-15T15:20:31;27.80;;;13.90;;
68577;SDS011;61668;45.388;11.784;2022-12-15T15:23:17;30.10;;;14.80;;
68577;SDS011;61668;45.388;11.784;2022-12-15T15:30:44;25.80;;;11.70;;
68577;SDS011;61668;45.388;11.784;2022-12-15T15:33:11;24.30;;;11.60;;
68577;SDS011;61668;45.388;11.784;2022-12-15T15:35:39;24.20;;;11.30;;
68577;SDS011;61668;45.388;11.784;2022-12-15T15:38:32;24.90;;;12.40;;
68577;SDS011;61668;45.388;11.784;2022-12-15T15:41:10;23.10;;;10.90;;
68577;SDS011;61668;45.388;11.784;2022-12-15T15:43:46;19.80;;;10.60;;
68577;SDS011;61668;45.388;11.784;2022-12-15T15:46:15;20.60;;;10.00;;
68577;SDS011;61668;45.388;11.784;2022-12-15T15:48:52;21.00;;;9.50;;
68577;SDS011;61668;45.388;11.784;2022-12-15T15:51:19;21.10;;;10.60;;
68577;SDS011;61668;45.388;11.784;2022-12-15T15:53:45;19.80;;;9.00;;
68577;SDS011;61668;45.388;11.784;2022-12-15T15:56:14;19.80;;;9.90;;
68577;SDS011;61668;45.388;11.784;2022-12-15T15:58:41;20.50;;;9.60;;
68577;SDS011;61668;45.388;11.784;2022-12-15T16:01:08;21.00;;;10.30;;
68577;SDS011;61668;45.388;11.784;2022-12-15T16:03:34;18.70;;;9.60;;
68577;SDS011;61668;45.388;11.784;2022-12-15T16:06:01;18.80;;;9.00;;
68577;SDS011;61668;45.388;11.784;2022-12-15T16:08:30;16.10;;;8.50;;
68577;SDS011;61668;45.388;11.784;2022-12-15T16:10:58;16.10;;;7.20;;
68577;SDS011;61668;45.388;11.784;2022-12-15T16:13:24;15.40;;;8.00;;
68577;SDS011;61668;45.388;11.784;2022-12-15T16:15:50;19.00;;;7.50;;
68577;SDS011;61668;45.388;11.784;2022-12-15T16:18:15;16.30;;;7.40;;
68577;SDS011;61668;45.388;11.784;2022-12-15T16:20:42;17.00;;;7.40;;
68577;SDS011;61668;45.388;11.784;2022-12-15T16:23:19;18.10;;;7.50;;
68577;SDS011;61668;45.388;11.784;2022-12-15T16:25:50;17.30;;;8.30;;
68577;SDS011;61668;45.388;11.784;2022-12-15T16:28:23;19.10;;;8.30;;
68577;SDS011;61668;45.388;11.784;2022-12-15T16:30:50;17.70;;;8.30;;
68577;SDS011;61668;45.388;11.784;2022-12-15T16:33:16;16.60;;;7.40;;
68577;SDS011;61668;45.388;11.784;2022-12-15T16:35:43;17.00;;;8.20;;
68577;SDS011;61668;45.388;11.784;2022-12-15T16:40:43;22.10;;;8.70;;
68577;SDS011;61668;45.388;11.784;2022-12-15T16:43:14;21.40;;;9.60;;
68577;SDS011;61668;45.388;11.784;2022-12-15T16:45:45;16.80;;;7.80;;
68577;SDS011;61668;45.388;11.784;2022-12-15T16:48:13;16.90;;;9.00;;
68577;SDS011;61668;45.388;11.784;2022-12-15T16:50:43;19.20;;;8.50;;
68577;SDS011;61668;45.388;11.784;2022-12-15T16:53:15;18.80;;;8.60;;
68577;SDS011;61668;45.388;11.784;2022-12-15T16:55:42;16.40;;;7.20;;
68577;SDS011;61668;45.388;11.784;2022-12-15T16:58:12;22.60;;;9.00;;
68577;SDS011;61668;45.388;11.784;2022-12-15T17:00:42;17.60;;;7.30;;